Time;durP1;ratioP1;P1;durP2;ratioP2;P2;SDS_P1;SDS_P2;PMS_P1;PMS_P2;Temp;Humidity;BMP_temperature;BMP_pressure;BME280_temperature;BME280_humidity;BME280_pressure;Samples;Min_cycle;Max_cycle;Signal;HPM_P1;HPM_P2
2023/01/09 00:02:32;;;;;;;148.63;79.87;;;;;;;;;;6232014;28;20401;-79
2023/01/09 00:05:32;;;;;;;138.05;73.78;;;;;;;;;;6247796;28;20056;-80
2023/01/09 00:08:33;;;;;;;164.10;87.97;;;;;;;;;;6248746;28;20037;-79
2023/01/09 00:11:33;;;;;;;159.57;85.33;;;;;;;;;;6248307;28;20510;-79
2023/01/09 00:14:33;;;;;;;174.20;85.73;;;;;;;;;;6230698;28;20021;-79
2023/01/09 00:17:33;;;;;;;170.65;91.80;;;;;;;;;;6249196;28;20088;-79
2023/01/09 00:20:34;;;;;;;148.50;77.90;;;;;;;;;;6245946;28;20028;-79
2023/01/09 00:23:35;;;;;;;164.80;83.43;;;;;;;;;;6248944;28;20105;-79
2023/01/09 00:26:35;;;;;;;155.33;75.57;;;;;;;;;;6229724;28;20026;-79
2023/01/09 00:29:35;;;;;;;137.50;80.87;;;;;;;;;;6229820;28;20033;-78
2023/01/09 00:32:35;;;;;;;151.07;80.10;;;;;;;;;;6244726;28;20373;-78
2023/01/09 00:35:35;;;;;;;141.30;74.40;;;;;;;;;;6226062;28;20392;-78
2023/01/09 00:38:36;;;;;;;143.25;71.82;;;;;;;;;;6241913;28;20022;-78
2023/01/09 00:41:38;;;;;;;144.03;74.67;;;;;;;;;;6228623;28;20079;-79
2023/01/09 00:44:41;;;;;;;173.63;87.60;;;;;;;;;;6241604;28;20469;-79
2023/01/09 00:47:43;;;;;;;143.40;74.82;;;;;;;;;;6230634;28;20029;-79
2023/01/09 00:50:43;;;;;;;159.00;80.55;;;;;;;;;;6241675;28;20027;-79
2023/01/09 00:53:44;;;;;;;148.10;76.70;;;;;;;;;;6241116;28;20018;-80
2023/01/09 00:56:45;;;;;;;151.00;81.37;;;;;;;;;;6230626;28;20021;-79
2023/01/09 00:59:45;;;;;;;158.17;84.80;;;;;;;;;;6248528;28;20014;-79
2023/01/09 01:02:45;;;;;;;167.40;82.73;;;;;;;;;;6225632;28;20036;-79
2023/01/09 01:09:04;;;;;;;144.98;73.25;;;;;;;;;;6252210;28;20401;-79
2023/01/09 01:12:05;;;;;;;172.50;87.30;;;;;;;;;;6245639;28;20109;-80
2023/01/09 01:15:06;;;;;;;160.05;82.10;;;;;;;;;;6247377;28;20402;-79
2023/01/09 01:18:07;;;;;;;163.60;84.10;;;;;;;;;;6246801;28;20028;-79
2023/01/09 01:21:07;;;;;;;158.40;84.30;;;;;;;;;;6244050;28;20024;-79
2023/01/09 01:24:07;;;;;;;164.87;83.33;;;;;;;;;;6242709;28;20022;-79
2023/01/09 01:27:08;;;;;;;147.43;74.90;;;;;;;;;;6247421;28;20014;-79
2023/01/09 01:30:09;;;;;;;164.57;85.13;;;;;;;;;;6246711;28;20017;-79
2023/01/09 01:33:09;;;;;;;166.80;84.70;;;;;;;;;;6222919;28;20072;-79
2023/01/09 01:36:10;;;;;;;137.53;74.33;;;;;;;;;;6229513;28;20557;-78
2023/01/09 01:39:10;;;;;;;147.13;67.80;;;;;;;;;;6241856;28;20107;-78
2023/01/09 01:42:11;;;;;;;129.53;66.47;;;;;;;;;;6222335;28;20018;-78
2023/01/09 01:45:13;;;;;;;113.53;59.50;;;;;;;;;;6220591;28;20025;-78
2023/01/09 01:48:15;;;;;;;125.32;66.00;;;;;;;;;;6248394;28;20022;-78
2023/01/09 01:51:17;;;;;;;135.85;70.05;;;;;;;;;;6248406;28;20428;-78
2023/01/09 01:54:22;;;;;;;127.68;67.70;;;;;;;;;;6230112;28;20025;-78
2023/01/09 01:57:22;;;;;;;156.55;75.65;;;;;;;;;;6245899;28;20365;-79
2023/01/09 02:00:26;;;;;;;151.83;75.80;;;;;;;;;;6247410;28;20033;-80
2023/01/09 02:03:27;;;;;;;144.93;75.97;;;;;;;;;;6245690;28;20127;-80
2023/01/09 02:06:28;;;;;;;141.27;70.20;;;;;;;;;;6248084;28;20025;-79
2023/01/09 02:09:28;;;;;;;133.30;62.33;;;;;;;;;;6252316;28;20045;-79
2023/01/09 02:12:28;;;;;;;121.83;60.90;;;;;;;;;;6229849;28;20079;-79
2023/01/09 02:15:33;;;;;;;114.67;59.00;;;;;;;;;;6243375;28;20025;-78
2023/01/09 02:18:39;;;;;;;106.93;56.50;;;;;;;;;;6247893;28;20117;-79
2023/01/09 02:21:48;;;;;;;115.97;60.13;;;;;;;;;;6242722;28;20032;-79
2023/01/09 02:25:07;;;;;;;116.32;56.97;;;;;;;;;;6228302;28;20570;-79
2023/01/09 02:28:30;;;;;;;107.35;58.60;;;;;;;;;;6244034;28;20028;-79
2023/01/09 02:31:30;;;;;;;121.47;62.13;;;;;;;;;;6233859;28;20030;-79
2023/01/09 02:34:55;;;;;;;122.83;68.00;;;;;;;;;;6243972;28;20025;-79
2023/01/09 02:38:13;;;;;;;138.77;69.38;;;;;;;;;;6245791;28;20025;-80
2023/01/09 02:41:17;;;;;;;134.90;72.43;;;;;;;;;;6228262;28;20073;-79
2023/01/09 02:44:22;;;;;;;137.02;71.40;;;;;;;;;;6245541;28;20477;-79
2023/01/09 02:47:23;;;;;;;127.20;68.85;;;;;;;;;;6230437;28;20021;-78
2023/01/09 02:50:27;;;;;;;133.27;66.03;;;;;;;;;;6231950;28;20033;-78
2023/01/09 02:53:30;;;;;;;125.90;65.03;;;;;;;;;;6246913;28;20033;-78
2023/01/09 02:56:35;;;;;;;144.00;71.22;;;;;;;;;;6229316;28;20052;-80
2023/01/09 02:59:46;;;;;;;123.63;65.65;;;;;;;;;;6251080;28;20026;-80
2023/01/09 03:02:50;;;;;;;136.70;72.00;;;;;;;;;;6246477;28;20258;-79
2023/01/09 03:05:56;;;;;;;131.25;67.88;;;;;;;;;;6229130;28;20579;-80
2023/01/09 03:08:59;;;;;;;118.38;58.50;;;;;;;;;;6226809;28;20147;-79
2023/01/09 03:12:13;;;;;;;114.18;57.22;;;;;;;;;;6228531;28;20029;-80
2023/01/09 03:15:14;;;;;;;128.57;54.25;;;;;;;;;;6227058;28;20029;-80
2023/01/09 03:18:15;;;;;;;119.80;52.77;;;;;;;;;;6244710;28;20018;-80
2023/01/09 03:21:15;;;;;;;116.63;53.50;;;;;;;;;;6225818;28;20029;-80
2023/01/09 03:24:16;;;;;;;113.13;56.00;;;;;;;;;;6245319;28;20025;-80
2023/01/09 03:27:16;;;;;;;112.57;56.97;;;;;;;;;;6246237;28;20009;-80
2023/01/09 03:30:16;;;;;;;125.37;59.60;;;;;;;;;;6226571;28;20018;-79
2023/01/09 03:33:16;;;;;;;108.23;57.60;;;;;;;;;;6227119;28;20033;-79
2023/01/09 03:36:18;;;;;;;110.23;55.43;;;;;;;;;;6226441;28;20026;-79
2023/01/09 03:39:18;;;;;;;120.75;58.13;;;;;;;;;;6246211;28;20469;-79
2023/01/09 03:42:18;;;;;;;115.70;57.83;;;;;;;;;;6247969;28;20024;-79
2023/01/09 03:45:18;;;;;;;118.17;59.03;;;;;;;;;;6227846;28;20040;-79
2023/01/09 03:48:19;;;;;;;98.07;53.43;;;;;;;;;;6249804;28;20021;-79
2023/01/09 03:51:19;;;;;;;104.50;51.83;;;;;;;;;;6227846;28;20017;-78
2023/01/09 03:54:19;;;;;;;106.63;50.90;;;;;;;;;;6246685;28;20025;-78
2023/01/09 03:57:19;;;;;;;102.93;49.53;;;;;;;;;;6229355;28;20045;-79
2023/01/09 04:00:20;;;;;;;89.53;49.58;;;;;;;;;;6244789;28;20032;-78
2023/01/09 04:03:20;;;;;;;98.73;50.53;;;;;;;;;;6231678;28;20393;-79
2023/01/09 04:06:20;;;;;;;99.10;48.33;;;;;;;;;;6249181;28;20489;-79
2023/01/09 04:09:20;;;;;;;92.25;49.67;;;;;;;;;;6232798;28;20045;-78
2023/01/09 04:12:20;;;;;;;99.90;46.67;;;;;;;;;;6249113;28;20079;-78
2023/01/09 04:15:21;;;;;;;105.65;54.42;;;;;;;;;;6230184;28;20029;-78
2023/01/09 04:18:21;;;;;;;111.93;52.80;;;;;;;;;;6232591;28;20033;-78
2023/01/09 04:21:21;;;;;;;103.30;50.17;;;;;;;;;;6225490;28;20514;-78
2023/01/09 04:24:21;;;;;;;97.40;52.47;;;;;;;;;;6225301;28;20038;-78
2023/01/09 04:27:22;;;;;;;91.97;47.97;;;;;;;;;;6231297;28;20018;-78
2023/01/09 04:30:22;;;;;;;102.83;52.40;;;;;;;;;;6232091;28;20420;-78
2023/01/09 04:33:22;;;;;;;98.40;50.90;;;;;;;;;;6248995;28;20116;-79
2023/01/09 04:36:22;;;;;;;88.07;43.25;;;;;;;;;;6247166;28;20052;-78
2023/01/09 04:39:22;;;;;;;96.07;52.80;;;;;;;;;;6247073;28;20381;-78
2023/01/09 04:42:23;;;;;;;90.33;45.43;;;;;;;;;;6229063;28;20152;-78
2023/01/09 04:45:23;;;;;;;88.17;48.37;;;;;;;;;;6247207;28;20048;-77
2023/01/09 04:48:23;;;;;;;78.23;41.47;;;;;;;;;;6248259;28;20493;-77
2023/01/09 04:51:23;;;;;;;84.37;43.87;;;;;;;;;;6246291;28;20018;-78
2023/01/09 04:54:23;;;;;;;80.00;38.70;;;;;;;;;;6246693;28;20037;-78
2023/01/09 04:57:24;;;;;;;79.27;40.53;;;;;;;;;;6246640;28;20039;-78
2023/01/09 05:00:24;;;;;;;89.47;46.87;;;;;;;;;;6245917;28;20109;-78
2023/01/09 05:03:24;;;;;;;79.50;41.27;;;;;;;;;;6229743;28;20128;-78
2023/01/09 05:06:24;;;;;;;90.28;46.03;;;;;;;;;;6229262;28;20025;-78
2023/01/09 05:09:24;;;;;;;89.77;44.40;;;;;;;;;;6230279;28;20136;-78
2023/01/09 05:12:25;;;;;;;78.90;40.63;;;;;;;;;;6247476;28;20041;-78
2023/01/09 05:15:27;;;;;;;71.95;36.97;;;;;;;;;;6227206;28;20033;-78
2023/01/09 05:18:27;;;;;;;70.68;34.85;;;;;;;;;;6227190;28;20053;-78
2023/01/09 05:21:27;;;;;;;78.07;40.53;;;;;;;;;;6246195;28;20025;-78
2023/01/09 05:24:27;;;;;;;69.90;37.73;;;;;;;;;;6229462;28;20464;-78
2023/01/09 05:27:29;;;;;;;66.13;34.77;;;;;;;;;;6235893;28;20021;-78
2023/01/09 05:30:29;;;;;;;64.35;33.47;;;;;;;;;;6224060;28;20109;-78
2023/01/09 05:33:29;;;;;;;67.87;34.57;;;;;;;;;;6231534;28;20048;-78
2023/01/09 05:36:29;;;;;;;69.33;35.67;;;;;;;;;;6235024;28;20029;-77
2023/01/09 05:39:30;;;;;;;65.47;33.67;;;;;;;;;;6234826;28;20055;-78
2023/01/09 05:42:30;;;;;;;57.87;34.47;;;;;;;;;;6231050;28;20071;-78
2023/01/09 05:45:30;;;;;;;73.20;38.00;;;;;;;;;;6242343;28;20038;-77
2023/01/09 05:48:30;;;;;;;63.37;35.73;;;;;;;;;;6239149;28;20033;-78
2023/01/09 05:51:30;;;;;;;59.67;31.70;;;;;;;;;;6223104;28;20026;-77
2023/01/09 05:54:31;;;;;;;65.27;33.13;;;;;;;;;;6240183;28;20017;-78
2023/01/09 05:57:31;;;;;;;59.22;31.30;;;;;;;;;;6242501;28;20457;-78
2023/01/09 06:00:31;;;;;;;65.95;34.05;;;;;;;;;;6228941;28;20040;-78
2023/01/09 06:03:31;;;;;;;63.90;33.73;;;;;;;;;;6230033;28;20428;-78
2023/01/09 06:06:31;;;;;;;69.90;36.40;;;;;;;;;;6228212;28;20428;-78
2023/01/09 06:09:32;;;;;;;51.93;26.70;;;;;;;;;;6246323;28;20045;-78
2023/01/09 06:12:32;;;;;;;63.73;33.77;;;;;;;;;;6223598;28;20018;-78
2023/01/09 06:15:32;;;;;;;64.67;36.17;;;;;;;;;;6213240;28;20504;-78
2023/01/09 06:18:32;;;;;;;66.63;38.23;;;;;;;;;;6241425;28;20076;-78
2023/01/09 06:21:33;;;;;;;64.30;34.10;;;;;;;;;;6216910;28;20428;-78
2023/01/09 06:24:33;;;;;;;63.40;35.37;;;;;;;;;;6232126;28;20018;-78
2023/01/09 06:27:33;;;;;;;65.75;36.78;;;;;;;;;;6215418;28;20013;-78
2023/01/09 06:30:33;;;;;;;63.17;34.50;;;;;;;;;;6226630;28;20013;-78
2023/01/09 06:33:33;;;;;;;60.50;35.03;;;;;;;;;;6224582;28;20044;-79
2023/01/09 06:36:34;;;;;;;68.83;35.20;;;;;;;;;;6241963;28;20014;-78
2023/01/09 06:39:34;;;;;;;65.10;34.00;;;;;;;;;;6240377;28;20506;-78
2023/01/09 06:42:34;;;;;;;67.90;33.97;;;;;;;;;;6238771;28;20045;-78
2023/01/09 06:45:34;;;;;;;68.18;33.67;;;;;;;;;;6226664;28;20022;-78
2023/01/09 06:48:34;;;;;;;63.37;35.40;;;;;;;;;;6234092;28;20088;-79
2023/01/09 06:51:35;;;;;;;56.00;33.80;;;;;;;;;;6237894;28;20024;-79
2023/01/09 06:54:35;;;;;;;55.07;30.67;;;;;;;;;;6239486;28;20083;-79
2023/01/09 06:57:35;;;;;;;70.10;34.60;;;;;;;;;;6218054;28;20151;-79
2023/01/09 07:00:35;;;;;;;57.57;32.27;;;;;;;;;;6218162;28;20476;-79
2023/01/09 07:03:36;;;;;;;45.30;26.37;;;;;;;;;;6219195;28;20034;-79
2023/01/09 07:06:36;;;;;;;60.23;28.10;;;;;;;;;;6231876;28;20378;-79
2023/01/09 07:09:36;;;;;;;62.87;34.30;;;;;;;;;;6238043;28;20521;-79
2023/01/09 07:12:36;;;;;;;73.47;40.33;;;;;;;;;;6224684;28;20045;-79
2023/01/09 07:15:36;;;;;;;63.63;37.13;;;;;;;;;;6221957;28;20041;-79
2023/01/09 07:18:38;;;;;;;79.67;40.10;;;;;;;;;;6228217;28;20084;-81
2023/01/09 07:21:38;;;;;;;69.25;37.13;;;;;;;;;;6228495;28;20105;-80
2023/01/09 07:24:38;;;;;;;70.53;33.13;;;;;;;;;;6224915;28;20108;-80
2023/01/09 07:27:38;;;;;;;285.50;102.50;;;;;;;;;;6241252;28;20044;-81
2023/01/09 07:30:39;;;;;;;211.80;82.40;;;;;;;;;;6237757;28;20097;-81
2023/01/09 07:33:39;;;;;;;247.93;95.83;;;;;;;;;;6243615;28;20442;-80
2023/01/09 07:36:39;;;;;;;211.93;81.83;;;;;;;;;;6230893;28;20075;-81
2023/01/09 07:39:39;;;;;;;171.90;76.03;;;;;;;;;;6229646;28;20009;-81
2023/01/09 07:42:39;;;;;;;186.33;78.67;;;;;;;;;;6231622;28;20427;-80
2023/01/09 07:45:40;;;;;;;167.67;76.00;;;;;;;;;;6239525;28;20076;-81
2023/01/09 07:48:40;;;;;;;177.80;79.77;;;;;;;;;;6238485;28;20112;-80
2023/01/09 07:51:42;;;;;;;152.50;74.03;;;;;;;;;;6237230;28;20032;-79
2023/01/09 07:54:42;;;;;;;141.93;70.57;;;;;;;;;;6230212;28;20029;-79
2023/01/09 07:57:42;;;;;;;148.30;85.83;;;;;;;;;;6244096;28;20064;-79
2023/01/09 08:00:42;;;;;;;152.97;75.47;;;;;;;;;;6238925;28;20041;-79
2023/01/09 08:03:43;;;;;;;198.80;86.63;;;;;;;;;;6227811;28;20021;-79
2023/01/09 08:06:43;;;;;;;113.33;57.13;;;;;;;;;;6243149;28;20017;-80
2023/01/09 08:09:43;;;;;;;98.60;48.27;;;;;;;;;;6242160;28;20068;-79
2023/01/09 08:12:44;;;;;;;83.27;44.80;;;;;;;;;;6225223;28;20017;-79
2023/01/09 08:15:44;;;;;;;75.40;40.90;;;;;;;;;;6223272;28;20033;-79
2023/01/09 08:18:44;;;;;;;74.33;37.33;;;;;;;;;;6229876;28;20120;-80
2023/01/09 08:21:45;;;;;;;68.60;37.42;;;;;;;;;;6236550;28;20025;-79
2023/01/09 08:24:45;;;;;;;57.13;30.93;;;;;;;;;;6227517;28;20647;-79
2023/01/09 08:27:45;;;;;;;64.15;35.83;;;;;;;;;;6225812;28;20017;-78
2023/01/09 08:30:46;;;;;;;78.70;43.70;;;;;;;;;;6241623;28;20017;-79
2023/01/09 08:33:46;;;;;;;78.37;39.30;;;;;;;;;;6241248;28;20022;-79
2023/01/09 08:36:47;;;;;;;87.17;47.67;;;;;;;;;;6242613;28;20075;-79
2023/01/09 08:39:47;;;;;;;80.37;43.00;;;;;;;;;;6237665;28;20238;-79
2023/01/09 08:49:36;;;;;;;61.45;33.35;;;;;;;;;;6240337;28;20033;-78
2023/01/09 08:52:36;;;;;;;54.78;29.23;;;;;;;;;;6239459;28;20016;-78
2023/01/09 08:55:36;;;;;;;51.45;27.35;;;;;;;;;;6245929;28;21343;-79
2023/01/09 08:58:37;;;;;;;52.83;29.00;;;;;;;;;;6229049;28;20465;-79
2023/01/09 09:01:37;;;;;;;44.87;25.50;;;;;;;;;;6237608;28;20450;-79
2023/01/09 09:04:37;;;;;;;44.13;27.50;;;;;;;;;;6239133;28;20389;-79
2023/01/09 09:07:37;;;;;;;45.95;27.83;;;;;;;;;;6223541;28;20477;-79
2023/01/09 09:10:37;;;;;;;43.40;26.90;;;;;;;;;;6235697;28;20021;-79
2023/01/09 09:13:38;;;;;;;34.57;22.13;;;;;;;;;;6217250;28;20021;-79
2023/01/09 09:16:38;;;;;;;35.67;21.50;;;;;;;;;;6239418;28;20084;-79
2023/01/09 09:19:40;;;;;;;34.07;19.50;;;;;;;;;;6228425;28;20116;-78
2023/01/09 09:22:40;;;;;;;;;;;;;;;;;;6218039;28;20022;-78
2023/01/09 09:25:40;;;;;;;30.50;16.95;;;;;;;;;;6230713;28;19921;-78
2023/01/09 09:28:40;;;;;;;27.13;16.57;;;;;;;;;;6230169;28;20030;-79
2023/01/09 09:31:41;;;;;;;27.50;17.37;;;;;;;;;;6215184;28;20028;-79
2023/01/09 09:34:41;;;;;;;27.53;15.53;;;;;;;;;;6210014;28;20053;-79
2023/01/09 09:37:41;;;;;;;29.13;17.17;;;;;;;;;;6233060;28;20032;-79
2023/01/09 09:41:02;;;;;;;31.50;21.33;;;;;;;;;;6231314;28;20029;-79
2023/01/09 09:47:44;;;;;;;39.53;25.70;;;;;;;;;;6228990;28;20089;-79
2023/01/09 09:50:55;;;;;;;34.17;19.58;;;;;;;;;;6213111;28;20026;-80
2023/01/09 09:53:56;;;;;;;36.30;24.40;;;;;;;;;;6229811;28;20084;-79
2023/01/09 09:56:57;;;;;;;33.87;24.73;;;;;;;;;;6215027;28;20061;-79
2023/01/09 09:59:57;;;;;;;32.15;19.02;;;;;;;;;;6238393;28;20383;-79
2023/01/09 10:03:03;;;;;;;37.27;19.30;;;;;;;;;;6225454;28;20029;-80
2023/01/09 10:06:07;;;;;;;29.38;19.42;;;;;;;;;;6227764;28;20049;-79
2023/01/09 10:09:12;;;;;;;29.08;18.75;;;;;;;;;;6225889;28;20045;-80
2023/01/09 10:12:33;;;;;;;34.88;19.33;;;;;;;;;;6245498;28;20128;-80
2023/01/09 10:15:41;;;;;;;29.38;21.17;;;;;;;;;;6235959;28;20079;-80
2023/01/09 10:18:47;;;;;;;35.00;21.60;;;;;;;;;;6231628;28;20107;-80
2023/01/09 10:21:57;;;;;;;31.83;20.33;;;;;;;;;;6220244;28;20036;-80
2023/01/09 10:25:04;;;;;;;28.15;19.40;;;;;;;;;;6241362;28;20040;-80
2023/01/09 10:28:23;;;;;;;29.67;17.45;;;;;;;;;;6237824;28;20033;-80
2023/01/09 10:31:42;;;;;;;30.55;20.48;;;;;;;;;;6245352;28;20476;-78
2023/01/09 10:35:11;;;;;;;31.20;20.13;;;;;;;;;;6243348;28;20055;-78
2023/01/09 10:38:14;;;;;;;39.78;27.67;;;;;;;;;;6176530;28;20037;-79
2023/01/09 10:41:26;;;;;;;39.45;26.92;;;;;;;;;;6244838;28;20488;-78
2023/01/09 10:44:35;;;;;;;48.67;30.98;;;;;;;;;;6230440;28;20382;-79
2023/01/09 10:47:37;;;;;;;61.45;34.90;;;;;;;;;;6227730;28;20454;-78
2023/01/09 10:50:37;;;;;;;;;;;;;;;;;;6224984;28;20963;-79
2023/01/09 10:53:40;;;;;;;55.88;31.45;;;;;;;;;;6236888;28;20440;-79
2023/01/09 10:56:44;;;;;;;56.47;31.42;;;;;;;;;;6226052;28;20073;-78
2023/01/09 10:59:44;;;;;;;45.05;31.40;;;;;;;;;;6241095;28;20690;-78
2023/01/09 11:02:44;;;;;;;48.10;30.73;;;;;;;;;;6221173;28;20056;-78
2023/01/09 11:05:52;;;;;;;55.13;33.80;;;;;;;;;;6221335;28;20017;-78
2023/01/09 11:08:54;;;;;;;45.60;31.55;;;;;;;;;;6236741;28;20050;-78
2023/01/09 11:11:54;;;;;;;47.45;34.35;;;;;;;;;;6223080;28;20029;-78
2023/01/09 11:14:55;;;;;;;42.17;25.90;;;;;;;;;;6221118;28;20029;-78
2023/01/09 11:17:57;;;;;;;42.00;27.70;;;;;;;;;;6224137;28;20025;-78
2023/01/09 11:21:12;;;;;;;49.47;29.08;;;;;;;;;;6238350;28;20036;-77
2023/01/09 11:24:31;;;;;;;45.80;30.23;;;;;;;;;;6231671;28;20102;-77
2023/01/09 11:27:31;;;;;;;40.28;24.45;;;;;;;;;;6237233;28;20022;-77
2023/01/09 11:30:35;;;;;;;37.50;25.47;;;;;;;;;;6237836;28;20033;-77
2023/01/09 11:33:37;;;;;;;43.38;28.55;;;;;;;;;;6220738;28;20018;-78
2023/01/09 11:36:37;;;;;;;48.00;29.45;;;;;;;;;;6240352;28;20018;-77
2023/01/09 11:39:40;;;;;;;76.03;43.30;;;;;;;;;;6240340;28;20028;-77
2023/01/09 11:42:59;;;;;;;40.53;27.90;;;;;;;;;;6235681;28;20117;-77
2023/01/09 11:46:01;;;;;;;35.88;26.20;;;;;;;;;;6240333;28;20021;-77
2023/01/09 11:49:22;;;;;;;38.30;23.67;;;;;;;;;;6237633;28;20492;-78
2023/01/09 11:52:23;;;;;;;30.40;20.15;;;;;;;;;;6239446;28;20041;-77
2023/01/09 11:55:23;;;;;;;26.38;16.40;;;;;;;;;;6237454;28;20425;-77
2023/01/09 11:58:24;;;;;;;25.13;13.70;;;;;;;;;;6230201;28;20025;-76
2023/01/09 12:01:42;;;;;;;25.20;14.30;;;;;;;;;;6228746;28;20416;-77
2023/01/09 12:04:57;;;;;;;18.98;10.43;;;;;;;;;;6246549;28;20029;-77
2023/01/09 12:08:05;;;;;;;16.05;9.95;;;;;;;;;;6234846;28;20045;-77
2023/01/09 12:11:18;;;;;;;14.32;7.80;;;;;;;;;;6227754;28;20390;-77
2023/01/09 12:14:25;;;;;;;13.70;8.15;;;;;;;;;;6242790;28;20112;-77
2023/01/09 12:17:48;;;;;;;11.27;6.90;;;;;;;;;;6239394;28;20099;-77
2023/01/09 12:21:07;;;;;;;16.48;9.63;;;;;;;;;;6235275;28;20049;-76
2023/01/09 12:24:13;;;;;;;14.77;8.70;;;;;;;;;;6213368;28;20040;-77
2023/01/09 12:27:32;;;;;;;10.75;5.75;;;;;;;;;;6238915;28;20064;-77
2023/01/09 12:30:32;;;;;;;17.73;9.65;;;;;;;;;;6238812;28;20482;-77
2023/01/09 12:33:32;;;;;;;15.80;8.37;;;;;;;;;;6230725;28;20033;-76
2023/01/09 12:36:44;;;;;;;17.08;8.75;;;;;;;;;;6239399;28;20473;-76
2023/01/09 12:40:03;;;;;;;12.30;7.25;;;;;;;;;;6233152;28;20013;-76
2023/01/09 12:43:03;;;;;;;11.98;5.95;;;;;;;;;;6233437;28;20044;-76
2023/01/09 12:46:03;;;;;;;14.07;7.00;;;;;;;;;;6236605;28;20017;-77
2023/01/09 12:49:17;;;;;;;15.25;8.15;;;;;;;;;;6213075;28;20076;-77
2023/01/09 12:52:22;;;;;;;41.53;20.08;;;;;;;;;;6236214;28;20022;-77
2023/01/09 12:55:26;;;;;;;28.00;14.60;;;;;;;;;;6243483;28;20055;-77
2023/01/09 12:58:38;;;;;;;26.98;13.60;;;;;;;;;;6237672;28;20123;-77
2023/01/09 13:01:43;;;;;;;23.40;11.65;;;;;;;;;;6235128;28;20051;-77
2023/01/09 13:04:47;;;;;;;27.50;12.43;;;;;;;;;;6228330;28;20485;-77
2023/01/09 13:07:51;;;;;;;25.48;10.77;;;;;;;;;;6224694;28;20520;-77
2023/01/09 13:10:54;;;;;;;21.83;10.50;;;;;;;;;;6245940;28;20106;-77
2023/01/09 13:14:00;;;;;;;22.48;9.63;;;;;;;;;;6247875;28;20048;-77
2023/01/09 13:17:01;;;;;;;21.27;10.65;;;;;;;;;;6239864;28;20505;-78
2023/01/09 13:20:01;;;;;;;18.43;8.67;;;;;;;;;;6242614;28;20029;-76
2023/01/09 13:23:02;;;;;;;18.10;9.47;;;;;;;;;;6229460;28;20064;-76
2023/01/09 13:26:23;;;;;;;17.67;10.73;;;;;;;;;;6234931;28;20029;-77
2023/01/09 13:29:25;;;;;;;21.33;11.20;;;;;;;;;;6233138;28;20014;-77
2023/01/09 13:32:37;;;;;;;23.95;13.02;;;;;;;;;;6227905;28;20056;-77
2023/01/09 13:35:51;;;;;;;20.60;10.38;;;;;;;;;;6223920;28;20029;-78
2023/01/09 13:38:55;;;;;;;16.65;9.95;;;;;;;;;;6235109;28;20026;-78
2023/01/09 13:45:15;;;;;;;22.23;12.90;;;;;;;;;;6240750;28;20037;-77
2023/01/09 13:48:18;;;;;;;21.63;14.00;;;;;;;;;;6218203;28;20062;-77
2023/01/09 13:51:36;;;;;;;28.88;13.65;;;;;;;;;;6235259;28;20024;-77
2023/01/09 13:54:45;;;;;;;26.25;13.88;;;;;;;;;;6231814;28;20075;-78
2023/01/09 13:58:04;;;;;;;32.35;19.52;;;;;;;;;;6232686;28;20086;-78
2023/01/09 14:01:23;;;;;;;35.60;20.42;;;;;;;;;;6238689;28;20017;-77
2023/01/09 14:04:26;;;;;;;27.02;16.42;;;;;;;;;;6235923;28;20053;-77
2023/01/09 14:07:31;;;;;;;22.95;13.65;;;;;;;;;;6218662;28;20065;-78
2023/01/09 14:10:45;;;;;;;25.90;15.13;;;;;;;;;;6239223;28;20146;-78
2023/01/09 14:13:50;;;;;;;18.33;8.90;;;;;;;;;;6234394;28;20025;-78
2023/01/09 14:16:50;;;;;;;18.85;9.07;;;;;;;;;;6235654;28;20018;-77
2023/01/09 14:19:55;;;;;;;21.23;12.50;;;;;;;;;;6228905;28;20056;-77
2023/01/09 14:22:56;;;;;;;20.00;10.18;;;;;;;;;;6227123;28;20017;-78
2023/01/09 14:25:57;;;;;;;17.53;10.47;;;;;;;;;;6240421;28;20021;-76
2023/01/09 14:29:16;;;;;;;18.33;10.73;;;;;;;;;;6247772;28;20080;-76
2023/01/09 14:32:19;;;;;;;17.58;9.43;;;;;;;;;;6221203;28;20405;-76
2023/01/09 14:35:31;;;;;;;15.68;10.60;;;;;;;;;;6236741;28;20022;-77
2023/01/09 14:38:34;;;;;;;19.98;10.95;;;;;;;;;;6238290;28;20409;-76
2023/01/09 14:41:57;;;;;;;17.92;11.32;;;;;;;;;;6238091;28;20481;-76
2023/01/09 14:45:03;;;;;;;19.55;10.15;;;;;;;;;;6218340;28;20390;-76
2023/01/09 14:48:04;;;;;;;17.05;9.70;;;;;;;;;;6213667;28;20026;-76
2023/01/09 14:51:07;;;;;;;20.85;11.20;;;;;;;;;;6241683;28;20037;-76
2023/01/09 14:54:28;;;;;;;19.23;11.60;;;;;;;;;;6226504;28;20136;-77
2023/01/09 14:57:30;;;;;;;16.70;10.38;;;;;;;;;;6238346;28;20109;-76
2023/01/09 15:00:30;;;;;;;19.20;10.57;;;;;;;;;;6239085;28;20389;-76
2023/01/09 15:03:35;;;;;;;23.50;12.17;;;;;;;;;;6225392;28;20025;-76
2023/01/09 15:06:39;;;;;;;22.65;13.68;;;;;;;;;;6241901;28;20022;-76
2023/01/09 15:09:44;;;;;;;25.70;13.98;;;;;;;;;;6242363;28;20519;-76
2023/01/09 15:12:45;;;;;;;23.80;13.82;;;;;;;;;;6216539;28;20384;-76
2023/01/09 15:15:46;;;;;;;27.50;18.35;;;;;;;;;;6240233;28;20033;-76
2023/01/09 15:18:48;;;;;;;29.37;16.57;;;;;;;;;;6241305;28;20030;-75
2023/01/09 15:21:55;;;;;;;27.02;14.18;;;;;;;;;;6221861;28;20029;-77
2023/01/09 15:24:56;;;;;;;28.92;16.70;;;;;;;;;;6218491;28;20112;-76
2023/01/09 15:28:02;;;;;;;25.23;14.40;;;;;;;;;;6246273;28;20495;-76
2023/01/09 15:31:29;;;;;;;26.55;13.35;;;;;;;;;;6229404;28;20437;-76
2023/01/09 15:34:29;;;;;;;26.92;13.80;;;;;;;;;;6233748;28;20044;-76
2023/01/09 15:37:34;;;;;;;24.97;13.53;;;;;;;;;;6229153;28;20055;-77
2023/01/09 15:40:34;;;;;;;24.10;14.40;;;;;;;;;;6247968;28;20089;-77
2023/01/09 15:43:38;;;;;;;31.43;18.07;;;;;;;;;;6250111;28;20495;-77
2023/01/09 15:46:39;;;;;;;37.78;21.75;;;;;;;;;;6243177;28;20022;-77
2023/01/09 15:49:40;;;;;;;32.07;19.50;;;;;;;;;;6240888;28;20029;-76
2023/01/09 15:52:41;;;;;;;32.72;19.67;;;;;;;;;;6244263;28;20062;-76
2023/01/09 15:55:42;;;;;;;22.90;15.27;;;;;;;;;;6245828;28;20033;-77
2023/01/09 15:58:46;;;;;;;31.87;18.13;;;;;;;;;;6240792;28;20025;-77
2023/01/09 16:03:08;;;;;;;31.65;19.73;;;;;;;;;;6230293;28;20558;-77
2023/01/09 16:05:17;;;;;;;30.95;19.90;;;;;;;;;;6244409;28;20114;-76
2023/01/09 16:08:29;;;;;;;32.67;19.33;;;;;;;;;;6228018;28;20067;-76
2023/01/09 16:11:36;;;;;;;31.77;16.55;;;;;;;;;;6242307;28;20025;-76
2023/01/09 16:14:38;;;;;;;32.97;20.95;;;;;;;;;;6230900;28;20049;-76
2023/01/09 16:17:38;;;;;;;;;;;;;;;;;;6239781;28;20022;-76
2023/01/09 16:20:39;;;;;;;44.78;26.27;;;;;;;;;;6229084;28;19932;-77
2023/01/09 16:23:49;;;;;;;41.33;26.10;;;;;;;;;;6249461;28;20093;-76
2023/01/09 16:27:08;;;;;;;48.97;29.75;;;;;;;;;;6246100;28;20092;-77
2023/01/09 16:30:27;;;;;;;38.78;23.00;;;;;;;;;;6239997;28;20432;-76
2023/01/09 16:33:28;;;;;;;39.65;23.77;;;;;;;;;;6238947;28;20026;-76
2023/01/09 16:36:28;;;;;;;35.53;23.52;;;;;;;;;;6243085;28;20230;-77
2023/01/09 16:39:29;;;;;;;40.87;26.33;;;;;;;;;;6238815;28;20029;-76
2023/01/09 16:45:49;;;;;;;34.83;21.02;;;;;;;;;;6244001;28;20037;-77
2023/01/09 16:48:49;;;;;;;52.15;29.40;;;;;;;;;;6235570;28;20048;-77
2023/01/09 16:51:50;;;;;;;48.43;28.60;;;;;;;;;;6222840;28;20018;-77
2023/01/09 16:54:50;;;;;;;35.33;23.20;;;;;;;;;;6221090;28;20026;-76
2023/01/09 16:57:50;;;;;;;41.80;24.63;;;;;;;;;;6217130;28;20063;-76
2023/01/09 17:00:51;;;;;;;37.90;23.23;;;;;;;;;;6242547;28;20026;-75
2023/01/09 17:03:52;;;;;;;40.63;23.48;;;;;;;;;;6237845;28;20029;-75
2023/01/09 17:06:52;;;;;;;41.10;23.58;;;;;;;;;;6224065;28;20496;-75
2023/01/09 17:09:52;;;;;;;42.67;23.73;;;;;;;;;;6233989;28;20054;-75
2023/01/09 17:12:53;;;;;;;35.97;22.00;;;;;;;;;;6218615;28;20010;-75
2023/01/09 17:15:57;;;;;;;34.00;22.70;;;;;;;;;;6223763;28;20021;-76
2023/01/09 17:18:57;;;;;;;37.47;22.52;;;;;;;;;;6220930;28;20045;-76
2023/01/09 17:21:57;;;;;;;35.53;23.17;;;;;;;;;;6239638;28;20025;-75
2023/01/09 17:28:32;;;;;;;33.95;20.80;;;;;;;;;;6254842;28;20030;-76
2023/01/09 17:31:32;;;;;;;33.63;20.45;;;;;;;;;;6248795;28;20029;-75
2023/01/09 17:34:33;;;;;;;36.73;19.37;;;;;;;;;;6240688;28;20052;-75
2023/01/09 17:37:34;;;;;;;44.60;22.20;;;;;;;;;;6217891;28;20362;-75
2023/01/09 17:40:34;;;;;;;41.00;22.33;;;;;;;;;;6222758;28;20033;-75
2023/01/09 17:43:34;;;;;;;41.73;22.17;;;;;;;;;;6239192;28;20036;-75
2023/01/09 17:46:35;;;;;;;39.97;23.07;;;;;;;;;;6228377;28;20032;-75
2023/01/09 17:49:35;;;;;;;46.27;24.53;;;;;;;;;;6230602;28;20044;-75
2023/01/09 17:52:35;;;;;;;49.50;25.43;;;;;;;;;;6245821;28;20070;-75
2023/01/09 17:55:36;;;;;;;45.25;26.35;;;;;;;;;;6226937;28;20120;-75
2023/01/09 17:58:36;;;;;;;46.60;26.57;;;;;;;;;;6222059;28;20051;-75
2023/01/09 18:01:36;;;;;;;40.43;23.20;;;;;;;;;;6225219;28;20017;-75
2023/01/09 18:04:38;;;;;;;52.80;28.43;;;;;;;;;;6240454;28;20033;-75
2023/01/09 18:07:38;;;;;;;42.15;23.63;;;;;;;;;;6212917;28;20041;-75
2023/01/09 18:10:39;;;;;;;45.33;24.23;;;;;;;;;;6222383;28;20080;-75